Ana Sayfa
METAR-TAF:

METAR-TAF

Havaalanları :

Jasper, Georgia, Amerika Birleşik Devletleri

Enlem: 34-27-12N, Boylam: 084-27-26W, yükseklik: 468 m

Güncel hava durumu gözlemi

Rapor saat 17:15 UTC de 19 dakika önce yapıldı.
Sakin rüzgar
Sıcaklık 30°C
Nem 35%
Basınç 1018 hPa
Görüş mesafesi: 16.1 km
Açık gökyüzü

METAR: KJZP 251715Z AUTO 00000KT 10SM CLR 30/13 A3006 RMK AO2 T02980135

Saat: 13:34 (17:34 UTC)


TAF: eksik

4.000'den fazla havaalanı için hava durumu gözlemleri ve tahminleri (METAR ve TAF raporları).

Kullanılabilir istasyonlar harita üzerinde sarı ve kırmızı noktalarla gösterilir.

İstasyonun adını görmek için fareyi noktanın üzerinde gezdirin.

Sonrasında hava gözlem ve tahminlerini görmek için tıklayın.

Haritayı değiştirmek için: yaklaştırmak için siyah artı işaretli yeşil düğmeye ve uzaklaştırmak için de eksi işaretli düğmeye hızla tıklayın; bitişik haritalar için yeşil okları kullanın.


METAR-TAF: